Time;durP1;ratioP1;P1;durP2;ratioP2;P2;SDS_P1;SDS_P2;PMS_P1;PMS_P2;Temp;Humidity;BMP_temperature;BMP_pressure;BME280_temperature;BME280_humidity;BME280_pressure;Samples;Min_cycle;Max_cycle;Signal;HPM_P1;HPM_P2
2021/07/01 00:00:44;;;;;;;11.60;9.60;;;;;;;23.68;66.36;99946.59;1804260;78;21077;-58
2021/07/01 00:03:10;;;;;;;11.65;9.50;;;;;;;23.65;66.21;99941.66;1765012;79;21034;-58
2021/07/01 00:05:37;;;;;;;10.75;9.23;;;;;;;23.65;66.50;99946.49;1785943;78;21066;-58
2021/07/01 00:08:04;;;;;;;13.50;9.80;;;;;;;23.64;66.75;99946.74;1802127;78;21054;-58
2021/07/01 00:10:30;;;;;;;13.18;9.83;;;;;;;23.60;66.72;99936.12;1772079;78;21054;-59
2021/07/01 00:12:58;;;;;;;14.60;10.23;;;;;;;23.58;66.80;99936.86;1753320;79;21466;-58
2021/07/01 00:15:27;;;;;;;11.75;8.85;;;;;;;23.54;66.98;99935.95;1799720;78;21041;-58
2021/07/01 00:17:54;;;;;;;12.33;9.18;;;;;;;23.55;67.00;99934.08;1811184;77;21037;-57
2021/07/01 00:20:22;;;;;;;12.05;9.33;;;;;;;23.55;66.81;99932.24;1767321;78;21157;-57
2021/07/01 00:22:50;;;;;;;12.60;9.38;;;;;;;23.57;66.72;99928.00;1778027;79;21141;-58
2021/07/01 00:25:17;;;;;;;10.98;9.25;;;;;;;23.57;66.56;99926.66;1815691;77;21038;-57
2021/07/01 00:27:46;;;;;;;12.28;10.10;;;;;;;23.52;66.40;99921.94;1808176;78;21129;-57
2021/07/01 00:30:16;;;;;;;11.63;8.73;;;;;;;23.50;66.42;99911.94;1805330;77;21018;-58
2021/07/01 00:32:43;;;;;;;13.05;9.88;;;;;;;23.47;66.90;99905.66;1800981;78;21047;-57
2021/07/01 00:35:11;;;;;;;12.03;8.90;;;;;;;23.48;67.36;99896.55;1818062;78;21730;-58
2021/07/01 00:37:37;;;;;;;12.98;10.20;;;;;;;23.49;67.54;99904.91;1812483;78;21042;-58
2021/07/01 00:40:06;;;;;;;11.40;8.58;;;;;;;23.51;67.92;99898.80;1809932;78;21047;-58
2021/07/01 00:42:32;;;;;;;11.22;8.73;;;;;;;23.53;68.37;99893.20;1765956;79;21557;-58
2021/07/01 00:44:58;;;;;;;13.48;7.97;;;;;;;23.58;68.70;99899.27;1774941;80;21154;-58
2021/07/01 00:47:25;;;;;;;14.20;7.78;;;;;;;23.61;68.61;99893.46;1813664;78;20987;-58
2021/07/01 00:49:53;;;;;;;12.43;7.92;;;;;;;23.61;68.65;99882.72;1784132;78;21564;-58
2021/07/01 00:52:20;;;;;;;11.88;7.60;;;;;;;23.60;68.84;99873.01;1813335;77;21069;-58
2021/07/01 00:54:46;;;;;;;11.38;7.03;;;;;;;23.62;68.70;99862.36;1821088;77;21678;-58
2021/07/01 00:57:13;;;;;;;9.70;6.85;;;;;;;23.68;68.56;99861.98;1809903;78;21093;-58
2021/07/01 00:59:41;;;;;;;8.03;6.45;;;;;;;23.70;68.20;99863.42;1806734;78;21006;-58
2021/07/01 01:02:07;;;;;;;7.75;6.78;;;;;;;23.70;67.93;99862.58;1788908;78;21061;-58
2021/07/01 01:04:34;;;;;;;10.15;7.30;;;;;;;23.67;67.65;99866.55;1782874;78;21022;-59
2021/07/01 01:07:04;;;;;;;10.00;7.22;;;;;;;23.61;67.75;99873.32;1781573;77;20998;-60
2021/07/01 01:09:31;;;;;;;9.20;7.47;;;;;;;23.54;67.79;99880.91;1760072;79;21933;-60
2021/07/01 01:11:58;;;;;;;9.40;7.42;;;;;;;23.48;67.97;99879.63;1815628;77;21513;-60
2021/07/01 01:14:25;;;;;;;9.13;7.72;;;;;;;23.45;68.04;99891.64;1769433;79;21042;-60
2021/07/01 01:16:59;;;;;;;9.40;8.20;;;;;;;23.37;68.13;99889.23;1821697;77;21067;-62
2021/07/01 01:19:26;;;;;;;10.18;8.83;;;;;;;23.24;68.50;99883.96;1785070;78;21061;-62
2021/07/01 01:21:53;;;;;;;10.28;9.20;;;;;;;23.14;68.88;99882.56;1793100;78;21545;-62
2021/07/01 01:24:20;;;;;;;10.10;9.03;;;;;;;23.09;69.04;99883.74;1765248;79;21002;-60
2021/07/01 01:26:48;;;;;;;9.85;8.55;;;;;;;23.04;68.91;99876.84;1802072;77;21116;-59
2021/07/01 01:33:09;;;;;;;13.95;8.63;;;;;;;23.07;68.85;99853.63;1803256;78;21057;-58
2021/07/01 01:35:37;;;;;;;11.38;9.13;;;;;;;23.10;68.81;99839.78;1782291;77;23360;-58
2021/07/01 01:38:10;;;;;;;11.38;8.90;;;;;;;23.10;68.60;99827.70;1767433;78;21026;-59
2021/07/01 01:40:38;;;;;;;10.48;8.98;;;;;;;23.10;68.45;99819.66;1798990;78;21030;-58
2021/07/01 01:43:05;;;;;;;11.45;9.18;;;;;;;23.08;68.36;99815.03;1738493;80;21092;-59
2021/07/01 01:45:31;;;;;;;9.75;7.95;;;;;;;23.07;68.37;99806.67;1770614;79;21560;-59
2021/07/01 01:47:57;;;;;;;10.15;8.63;;;;;;;23.07;68.39;99796.47;1796240;79;21114;-60
2021/07/01 01:50:25;;;;;;;10.88;8.28;;;;;;;23.10;68.32;99797.34;1794149;79;21453;-59
2021/07/01 01:52:52;;;;;;;12.00;8.05;;;;;;;23.13;68.30;99786.17;1794898;78;20994;-58
2021/07/01 01:55:18;;;;;;;16.17;8.98;;;;;;;23.13;68.34;99773.60;1773219;79;21108;-59
2021/07/01 01:57:48;;;;;;;10.82;8.70;;;;;;;23.12;68.74;99767.92;1790482;79;21852;-58
2021/07/01 02:00:17;;;;;;;9.75;8.15;;;;;;;23.10;69.10;99763.30;1788022;78;21707;-59
2021/07/01 02:02:56;;;;;;;8.48;7.12;;;;;;;23.11;69.48;99763.59;1823726;78;21024;-58
2021/07/01 02:05:27;;;;;;;11.30;8.70;;;;;;;23.14;69.39;99760.47;1829310;78;21041;-58
2021/07/01 02:07:54;;;;;;;10.28;7.92;;;;;;;23.15;69.23;99747.36;1820768;78;21560;-59
2021/07/01 02:10:35;;;;;;;9.90;8.33;;;;;;;23.16;69.01;99742.28;1802031;79;21049;-59
2021/07/01 02:13:03;;;;;;;9.28;7.72;;;;;;;23.15;68.27;99740.66;1804363;78;21073;-59
2021/07/01 02:15:31;;;;;;;10.63;7.75;;;;;;;23.11;68.12;99761.44;1769733;79;21733;-61
2021/07/01 02:17:58;;;;;;;9.65;8.30;;;;;;;23.06;68.29;99772.82;1769320;79;21047;-63
2021/07/01 02:20:27;;;;;;;9.38;8.25;;;;;;;23.00;68.18;99779.86;1800162;79;20999;-58
2021/07/01 02:22:54;;;;;;;10.08;8.10;;;;;;;22.95;68.48;99777.55;1799698;79;21559;-59
2021/07/01 02:25:22;;;;;;;10.08;7.40;;;;;;;22.96;68.62;99773.80;1759821;79;21108;-59
2021/07/01 02:28:05;;;;;;;10.58;8.08;;;;;;;22.98;68.83;99769.03;1749935;78;21041;-58
2021/07/01 02:30:33;;;;;;;9.95;8.05;;;;;;;22.99;68.84;99780.08;1792807;78;21076;-59
2021/07/01 02:33:00;;;;;;;11.48;8.50;;;;;;;23.02;68.68;99778.84;1767871;79;21007;-60
2021/07/01 02:35:27;;;;;;;9.88;8.63;;;;;;;23.02;68.82;99778.30;1774836;79;21577;-59
2021/07/01 02:38:12;;;;;;;9.70;8.33;;;;;;;23.04;68.74;99784.27;1789564;78;21544;-59
2021/07/01 02:40:41;;;;;;;11.55;8.85;;;;;;;23.04;68.69;99784.80;1740497;79;21073;-58
2021/07/01 02:43:09;;;;;;;11.48;8.40;;;;;;;23.07;68.60;99781.71;1799793;78;21092;-58
2021/07/01 02:45:36;;;;;;;9.98;8.30;;;;;;;23.10;68.47;99783.44;1801924;77;21541;-59
2021/07/01 02:48:15;;;;;;;9.15;7.55;;;;;;;23.15;68.43;99787.62;1821184;77;21026;-58
2021/07/01 02:50:44;;;;;;;9.33;8.23;;;;;;;23.18;68.34;99781.81;1811684;77;21251;-58
2021/07/01 02:53:10;;;;;;;11.35;9.50;;;;;;;23.20;68.14;99780.25;1809438;77;21091;-59
2021/07/01 02:55:39;;;;;;;16.37;9.78;;;;;;;23.18;68.09;99791.20;1814947;77;21100;-61
2021/07/01 02:58:06;;;;;;;11.68;8.50;;;;;;;23.16;68.20;99802.66;1789133;78;21485;-60
2021/07/01 03:00:34;;;;;;;11.33;8.35;;;;;;;23.13;68.28;99804.96;1810129;77;21027;-59
2021/07/01 03:03:02;;;;;;;12.65;9.40;;;;;;;23.11;68.33;99805.71;1812183;77;21135;-58
2021/07/01 03:05:34;;;;;;;9.35;8.05;;;;;;;23.13;68.40;99817.88;1767473;78;20997;-60
2021/07/01 03:08:00;;;;;;;11.85;8.90;;;;;;;23.17;68.42;99820.41;1795870;78;21501;-59
2021/07/01 03:10:27;;;;;;;10.60;8.60;;;;;;;23.21;68.43;99818.64;1786834;78;21034;-58
2021/07/01 03:12:56;;;;;;;9.73;8.23;;;;;;;23.25;68.43;99817.14;1810384;78;21101;-57
2021/07/01 03:15:24;;;;;;;10.68;8.95;;;;;;;23.30;68.61;99815.96;1818080;78;21390;-58
2021/07/01 03:17:51;;;;;;;10.80;8.98;;;;;;;23.35;68.64;99820.15;1803827;77;21113;-62
2021/07/01 03:20:20;;;;;;;10.70;9.08;;;;;;;23.37;68.52;99831.51;1807492;77;21695;-62
2021/07/01 03:23:05;;;;;;;10.60;9.00;;;;;;;23.41;68.39;99835.38;1809221;77;21015;-59
2021/07/01 03:25:32;;;;;;;9.20;7.97;;;;;;;23.48;68.22;99842.03;1757220;79;21128;-59
2021/07/01 03:27:59;;;;;;;9.30;8.03;;;;;;;23.53;68.11;99848.37;1813847;77;21178;-60
2021/07/01 03:30:26;;;;;;;11.33;8.88;;;;;;;23.60;67.52;99869.80;1780382;78;21249;-60
2021/07/01 03:32:53;;;;;;;14.18;11.43;;;;;;;23.61;67.29;99889.44;1772999;78;21096;-60
2021/07/01 03:35:20;;;;;;;13.38;11.43;;;;;;;23.53;67.45;99904.77;1804615;77;21062;-62
2021/07/01 03:37:54;;;;;;;12.58;11.10;;;;;;;23.43;67.06;99896.91;1722973;78;21107;-62
2021/07/01 03:40:22;;;;;;;12.78;11.35;;;;;;;23.27;67.05;99891.58;1785451;78;21451;-59
2021/07/01 03:42:50;;;;;;;13.95;11.57;;;;;;;23.18;67.28;99891.00;1809510;78;20995;-61
2021/07/01 03:45:17;;;;;;;14.80;11.20;;;;;;;23.15;66.97;99900.86;1805874;78;21058;-59
2021/07/01 03:47:43;;;;;;;12.68;11.10;;;;;;;23.12;66.95;99912.83;1816204;78;20979;-62
2021/07/01 03:50:11;;;;;;;12.33;10.48;;;;;;;23.06;67.08;99916.38;1811111;78;21516;-61
2021/07/01 03:52:49;;;;;;;14.18;11.73;;;;;;;22.96;67.36;99905.27;1768241;78;22353;-61
2021/07/01 03:55:17;;;;;;;11.88;10.45;;;;;;;22.88;67.36;99904.17;1802090;77;21045;-61
2021/07/01 03:57:43;;;;;;;13.43;10.60;;;;;;;22.86;67.64;99914.30;1816849;78;21080;-61
2021/07/01 04:00:13;;;;;;;11.95;9.63;;;;;;;22.84;67.72;99910.49;1776145;78;21054;-61
2021/07/01 04:02:46;;;;;;;9.88;8.35;;;;;;;22.87;67.72;99910.59;1809291;78;21053;-69
2021/07/01 04:05:14;;;;;;;11.05;8.93;;;;;;;22.91;67.55;99921.19;1803728;78;21144;-65
2021/07/01 04:07:41;;;;;;;10.78;9.60;;;;;;;22.92;67.70;99916.95;1784737;77;22506;-67
2021/07/01 04:10:12;;;;;;;11.45;9.40;;;;;;;22.92;67.80;99912.92;1767101;78;21136;-67
2021/07/01 04:12:50;;;;;;;11.35;9.88;;;;;;;22.92;67.70;99915.61;1819850;77;21039;-66
2021/07/01 04:15:34;;;;;;;12.23;9.20;;;;;;;22.96;67.77;99912.81;1807264;78;21034;-67
2021/07/01 04:18:19;;;;;;;10.15;8.73;;;;;;;23.06;67.66;99920.39;1803800;78;23253;-67
2021/07/01 04:20:54;;;;;;;12.75;9.58;;;;;;;23.18;67.39;99913.31;1757291;77;21103;-67
2021/07/01 04:23:39;;;;;;;12.63;9.53;;;;;;;23.30;67.05;99905.88;1814053;78;21066;-67
2021/07/01 04:26:10;;;;;;;10.78;9.35;;;;;;;23.43;66.65;99913.02;1806096;77;21069;-67
2021/07/01 04:28:37;;;;;;;11.03;8.80;;;;;;;23.50;66.51;99902.54;1769229;78;21459;-68
2021/07/01 04:31:04;;;;;;;14.38;9.60;;;;;;;23.58;66.45;99900.08;1796942;78;21097;-73
2021/07/01 04:33:42;;;;;;;10.43;9.28;;;;;;;23.68;66.54;99907.64;1797939;77;22416;-70
2021/07/01 04:36:10;;;;;;;11.10;8.13;;;;;;;23.78;65.87;99916.02;1767901;78;21057;-69
2021/07/01 04:38:36;;;;;;;11.70;9.40;;;;;;;23.88;65.69;99919.58;1807127;77;21124;-67
2021/07/01 04:41:04;;;;;;;11.15;9.53;;;;;;;23.95;65.83;99920.33;1813861;77;21101;-67
2021/07/01 04:43:30;;;;;;;11.18;9.98;;;;;;;24.02;65.51;99928.31;1809041;77;21081;-67
2021/07/01 04:45:57;;;;;;;12.55;10.08;;;;;;;24.03;64.93;99928.63;1753623;79;21799;-71
2021/07/01 04:48:24;;;;;;;12.18;10.38;;;;;;;24.03;65.16;99936.16;1767714;78;21081;-68
2021/07/01 04:50:51;;;;;;;13.65;10.38;;;;;;;24.03;65.48;99936.16;1777514;78;21496;-67
2021/07/01 04:53:34;;;;;;;9.95;8.63;;;;;;;24.05;65.36;99939.44;1710798;82;21085;-68
2021/07/01 04:56:21;;;;;;;8.75;6.83;;;;;;;24.10;65.12;99946.84;1749668;79;21261;-67
2021/07/01 04:58:51;;;;;;;9.75;7.47;;;;;;;24.12;64.55;99947.44;1794170;78;21081;-72
2021/07/01 05:01:31;;;;;;;19.05;7.92;;;;;;;24.08;64.40;99951.09;1715455;79;21116;-68
2021/07/01 05:04:18;;;;;;;10.08;7.72;;;;;;;24.07;64.33;99967.44;1784371;78;21084;-71
2021/07/01 05:06:45;;;;;;;9.55;7.85;;;;;;;24.02;64.54;99962.72;1773865;78;21311;-71
2021/07/01 05:09:11;;;;;;;12.35;7.75;;;;;;;24.03;64.72;99975.66;1809001;77;21125;-75
2021/07/01 05:11:39;;;;;;;16.77;7.70;;;;;;;24.07;64.57;99974.16;1773505;77;21172;-75
2021/07/01 05:14:05;;;;;;;18.32;8.33;;;;;;;24.15;64.43;99979.25;1804720;77;21054;-76
2021/07/01 05:16:33;;;;;;;30.12;9.63;;;;;;;24.21;64.52;99973.00;1812968;77;21080;-65
2021/07/01 05:19:04;;;;;;;15.43;8.05;;;;;;;24.26;63.85;99979.05;1778864;78;21476;-71
2021/07/01 05:21:38;;;;;;;14.38;7.85;;;;;;;24.20;63.44;99979.41;1790542;77;21118;-66
2021/07/01 05:24:23;;;;;;;13.45;7.45;;;;;;;24.16;63.66;99978.72;1810114;77;21093;-63
2021/07/01 05:27:08;;;;;;;12.60;7.00;;;;;;;24.11;64.03;99980.75;1756429;79;21116;-68
2021/07/01 05:29:54;;;;;;;9.40;5.87;;;;;;;24.09;64.02;99978.78;1702624;83;21074;-65
2021/07/01 05:32:38;;;;;;;10.35;6.95;;;;;;;24.11;64.19;99982.09;1670258;84;21681;-69
2021/07/01 05:35:09;;;;;;;10.40;7.08;;;;;;;24.17;63.67;99983.88;1745607;78;21133;-70
2021/07/01 05:39:11;;;;;;;43.65;11.85;;;;;;;24.23;63.49;99980.84;1796918;78;22787;-68
2021/07/01 05:41:38;;;;;;;9.93;6.90;;;;;;;24.23;63.94;99987.03;1767548;79;21594;-65
2021/07/01 05:44:05;;;;;;;14.90;7.55;;;;;;;24.28;63.67;99990.41;1706473;81;21471;-65
2021/07/01 05:46:39;;;;;;;11.12;6.92;;;;;;;24.32;63.79;99986.21;1711359;81;21042;-68
2021/07/01 05:49:05;;;;;;;9.68;7.33;;;;;;;24.39;63.38;99979.42;1712263;81;21519;-63
2021/07/01 05:51:34;;;;;;;11.75;8.03;;;;;;;24.47;62.94;99976.44;1741270;81;21098;-63
2021/07/01 05:56:46;;;;;;;10.38;7.90;;;;;;;24.58;62.77;99978.91;1732802;80;21923;-68
2021/07/01 05:59:12;;;;;;;9.65;7.22;;;;;;;24.61;62.71;99974.44;1739365;81;21076;-65
2021/07/01 06:01:39;;;;;;;9.35;7.53;;;;;;;24.65;63.40;99971.08;1733199;81;21172;-68
2021/07/01 06:04:07;;;;;;;9.83;7.17;;;;;;;24.75;63.28;99971.08;1737187;80;21124;-72
2021/07/01 06:06:54;;;;;;;9.50;6.97;;;;;;;24.87;62.96;99975.98;1736237;80;21232;-74
2021/07/01 06:09:26;;;;;;;10.93;8.25;;;;;;;24.94;62.15;99978.05;1714976;81;21124;-68
2021/07/01 06:12:00;;;;;;;8.85;6.70;;;;;;;24.97;62.20;99978.95;1738737;80;21324;-65
2021/07/01 06:14:28;;;;;;;13.68;8.43;;;;;;;25.01;62.15;99975.27;1737257;80;21137;-77
2021/07/01 06:16:56;;;;;;;9.90;7.72;;;;;;;25.06;62.09;99978.64;1737442;80;21619;-73
2021/07/01 06:19:22;;;;;;;8.65;7.17;;;;;;;25.11;62.12;99971.51;1739799;81;21623;-70
2021/07/01 06:21:50;;;;;;;8.08;6.85;;;;;;;25.21;61.67;99969.61;1732723;80;21153;-61
2021/07/01 06:24:17;;;;;;;10.15;7.70;;;;;;;25.33;61.12;99970.48;1735829;80;21094;-65
2021/07/01 06:26:46;;;;;;;13.72;8.18;;;;;;;25.42;60.79;99967.47;1709571;81;21176;-71
2021/07/01 06:29:13;;;;;;;10.60;8.25;;;;;;;25.44;60.76;99966.20;1739359;81;20990;-73
2021/07/01 06:31:40;;;;;;;21.68;10.00;;;;;;;25.48;60.61;99957.13;1739981;80;21742;-68
2021/07/01 06:34:07;;;;;;;16.23;8.88;;;;;;;25.53;60.23;99966.68;1735943;81;21199;-67
2021/07/01 06:36:36;;;;;;;19.55;10.05;;;;;;;25.58;60.23;99966.27;1733076;81;21561;-70
2021/07/01 06:39:21;;;;;;;22.40;7.83;;;;;;;25.61;59.99;99969.03;1705677;82;21031;-65
2021/07/01 06:42:07;;;;;;;11.83;7.45;;;;;;;25.63;59.76;99964.77;1723487;82;21122;-62
2021/07/01 06:44:52;;;;;;;11.15;7.33;;;;;;;25.67;59.17;99964.08;1747021;80;21025;-68
2021/07/01 06:47:23;;;;;;;14.65;7.83;;;;;;;25.67;59.46;99968.63;1741406;80;21553;-69
2021/07/01 06:50:09;;;;;;;11.75;8.30;;;;;;;25.65;59.06;99970.73;1761431;80;21009;-68
2021/07/01 06:52:56;;;;;;;11.22;7.97;;;;;;;25.60;59.55;99960.65;1742614;80;21050;-74
2021/07/01 06:55:43;;;;;;;14.87;8.10;;;;;;;25.56;59.22;99967.03;1700905;82;21554;-64
2021/07/01 06:58:20;;;;;;;10.72;8.18;;;;;;;25.57;59.88;99973.23;1703755;82;21236;-62
2021/07/01 07:00:47;;;;;;;10.53;7.72;;;;;;;25.58;59.75;99966.80;1705912;83;21122;-68
2021/07/01 07:03:18;;;;;;;11.97;7.97;;;;;;;25.65;59.78;99965.34;1705143;83;21865;-68
2021/07/01 07:05:54;;;;;;;10.75;7.45;;;;;;;25.74;59.85;99968.82;1707150;83;21561;-68
2021/07/01 07:08:21;;;;;;;10.53;7.25;;;;;;;25.80;59.22;99965.70;1757384;79;21026;-66
2021/07/01 07:10:49;;;;;;;9.80;7.08;;;;;;;25.82;58.79;99955.51;1763463;80;21006;-68
2021/07/01 07:13:16;;;;;;;9.78;7.33;;;;;;;25.82;58.71;99957.39;1763860;80;21082;-66
2021/07/01 07:15:43;;;;;;;8.25;6.83;;;;;;;25.82;59.12;99951.47;1764032;80;21589;-69
2021/07/01 07:18:23;;;;;;;11.97;7.33;;;;;;;25.84;58.64;99955.28;1763071;79;21043;-69
2021/07/01 07:21:04;;;;;;;9.90;7.20;;;;;;;25.84;58.98;99947.19;1761236;80;21611;-60
2021/07/01 07:23:33;;;;;;;12.25;7.42;;;;;;;25.86;58.96;99951.30;1737936;81;21066;-62
2021/07/01 07:26:07;;;;;;;12.15;7.25;;;;;;;25.89;58.92;99946.80;1768034;79;21124;-61
2021/07/01 07:28:36;;;;;;;10.13;6.97;;;;;;;25.96;59.25;99938.63;1743210;80;21112;-58
2021/07/01 07:31:03;;;;;;;8.08;6.75;;;;;;;26.06;59.24;99940.73;1763174;80;21010;-65
2021/07/01 07:33:29;;;;;;;14.60;7.53;;;;;;;26.11;58.88;99935.45;1714775;80;21042;-67
2021/07/01 07:35:57;;;;;;;12.37;7.97;;;;;;;26.15;58.63;99925.83;1764886;80;21138;-65
2021/07/01 07:38:25;;;;;;;10.40;7.83;;;;;;;26.19;58.49;99930.20;1759108;80;21051;-69
2021/07/01 07:40:53;;;;;;;12.63;8.18;;;;;;;26.17;58.71;99930.44;1758610;80;21015;-75
2021/07/01 07:43:21;;;;;;;9.28;7.45;;;;;;;26.14;58.43;99929.05;1756986;79;21082;-65
2021/07/01 07:45:51;;;;;;;9.60;7.92;;;;;;;26.08;58.29;99924.60;1770181;80;21035;-65
2021/07/01 07:48:20;;;;;;;9.15;7.20;;;;;;;26.00;58.30;99925.50;1755155;80;21038;-71
2021/07/01 07:50:52;;;;;;;11.00;7.10;;;;;;;25.95;57.46;99920.80;1756443;80;21061;-72
2021/07/01 07:53:28;;;;;;;9.78;7.15;;;;;;;25.86;58.01;99912.23;1754941;80;21066;-65
2021/07/01 07:56:04;;;;;;;9.30;6.62;;;;;;;25.83;58.42;99910.00;1753257;80;21407;-71
2021/07/01 07:58:34;;;;;;;11.50;7.50;;;;;;;25.87;58.40;99910.34;1756201;79;21106;-74
2021/07/01 08:01:01;;;;;;;11.53;7.22;;;;;;;25.90;58.91;99910.69;1754558;79;21051;-71
2021/07/01 08:03:33;;;;;;;11.70;7.83;;;;;;;25.95;58.66;99904.63;1753765;79;21555;-69
2021/07/01 08:06:01;;;;;;;9.20;7.17;;;;;;;26.02;58.69;99905.86;1758535;80;21027;-72
2021/07/01 08:08:31;;;;;;;9.55;6.50;;;;;;;26.10;58.61;99910.89;1750939;80;21102;-72
2021/07/01 08:11:02;;;;;;;11.48;6.87;;;;;;;26.16;57.91;99907.76;1755768;79;21126;-73
2021/07/01 08:13:29;;;;;;;9.03;6.10;;;;;;;26.20;57.54;99913.80;1752625;80;21109;-68
2021/07/01 08:15:56;;;;;;;9.48;5.90;;;;;;;26.24;56.54;99908.23;1755836;79;21110;-71
2021/07/01 08:18:38;;;;;;;8.20;5.65;;;;;;;26.29;56.00;99915.59;1744058;80;21067;-69
2021/07/01 08:21:06;;;;;;;9.15;5.70;;;;;;;26.36;56.53;99913.59;1757166;80;21024;-72
2021/07/01 08:23:33;;;;;;;8.13;5.28;;;;;;;26.43;55.37;99912.92;1758496;80;21059;-72
2021/07/01 08:26:02;;;;;;;7.45;5.28;;;;;;;26.48;54.58;99908.17;1766556;80;20996;-73
2021/07/01 08:28:30;;;;;;;7.22;5.03;;;;;;;26.51;54.40;99907.16;1735298;80;21467;-70
2021/07/01 08:31:15;;;;;;;8.60;5.42;;;;;;;26.57;53.42;99907.26;1753537;80;21047;-71
2021/07/01 08:33:45;;;;;;;6.97;4.40;;;;;;;26.62;52.92;99900.61;1759250;79;21475;-71
2021/07/01 08:36:21;;;;;;;6.12;4.20;;;;;;;26.68;52.13;99897.80;1758541;80;20995;-72
2021/07/01 08:38:51;;;;;;;8.38;4.60;;;;;;;26.74;50.53;99891.95;1757105;80;21082;-72
2021/07/01 08:41:28;;;;;;;8.78;5.00;;;;;;;26.80;49.51;99888.30;1751629;80;21039;-72
2021/07/01 08:44:08;;;;;;;9.30;4.72;;;;;;;26.83;52.13;99885.63;1747787;80;21011;-71
2021/07/01 08:46:49;;;;;;;9.13;4.78;;;;;;;26.86;49.74;99881.94;1722699;81;21154;-71
2021/07/01 08:49:37;;;;;;;7.37;4.75;;;;;;;26.87;50.66;99888.95;1746118;81;21070;-69
2021/07/01 08:52:05;;;;;;;10.32;5.22;;;;;;;26.88;50.06;99900.05;1740205;81;21565;-70
2021/07/01 08:54:34;;;;;;;8.33;5.33;;;;;;;26.87;50.36;99896.25;1754704;80;21587;-68
2021/07/01 08:57:04;;;;;;;8.63;5.97;;;;;;;26.90;51.20;99897.62;1715164;81;21491;-67
2021/07/01 08:59:54;;;;;;;8.65;4.95;;;;;;;26.95;51.48;99898.55;1751383;80;21055;-68
2021/07/01 09:02:17;;;;;;;10.28;5.60;;;;;;;27.03;51.60;99895.97;1743319;80;21211;-64
2021/07/01 09:04:51;;;;;;;9.05;4.87;;;;;;;27.10;51.71;99899.36;1739004;80;21085;-64
2021/07/01 09:07:23;;;;;;;7.80;4.58;;;;;;;27.17;50.99;99904.60;1726639;81;21767;-70
2021/07/01 09:09:59;;;;;;;10.32;5.03;;;;;;;27.24;49.54;99899.84;1750605;80;21039;-65
2021/07/01 09:12:28;;;;;;;6.62;4.72;;;;;;;27.32;49.87;99903.53;1749077;80;21077;-68
2021/07/01 09:15:06;;;;;;;6.55;4.70;;;;;;;27.38;49.35;99901.17;1752999;80;21110;-70
2021/07/01 09:17:33;;;;;;;6.47;4.20;;;;;;;27.45;48.88;99896.95;1748197;81;21146;-71
2021/07/01 09:20:03;;;;;;;6.85;4.62;;;;;;;27.50;48.80;99888.13;1750989;81;21047;-71
2021/07/01 09:22:30;;;;;;;5.80;3.98;;;;;;;27.53;47.99;99894.39;1755109;80;22440;-68
2021/07/01 09:24:58;;;;;;;6.47;4.12;;;;;;;27.52;47.16;99890.88;1748238;80;21406;-65
2021/07/01 09:27:26;;;;;;;7.47;4.75;;;;;;;27.50;48.36;99886.23;1747538;80;21226;-68
2021/07/01 09:29:53;;;;;;;7.80;4.33;;;;;;;27.54;48.08;99884.69;1756311;81;21129;-67
2021/07/01 09:32:21;;;;;;;5.95;4.20;;;;;;;27.58;46.76;99887.16;1748368;80;22268;-67
2021/07/01 09:34:49;;;;;;;9.83;4.37;;;;;;;27.67;47.53;99890.80;1744839;80;21387;-70
2021/07/01 09:37:17;;;;;;;8.83;4.65;;;;;;;27.75;48.37;99883.62;1747513;80;20994;-65
2021/07/01 09:39:47;;;;;;;7.67;4.58;;;;;;;27.84;48.21;99879.95;1741242;80;21494;-65
2021/07/01 09:42:13;;;;;;;9.60;4.60;;;;;;;27.90;48.06;99879.78;1740380;80;22187;-67
2021/07/01 09:44:40;;;;;;;6.37;4.40;;;;;;;27.98;46.96;99879.92;1760744;80;21119;-71
2021/07/01 09:47:09;;;;;;;7.87;4.58;;;;;;;28.04;46.15;99880.80;1758926;79;21631;-66
2021/07/01 09:49:42;;;;;;;6.12;3.52;;;;;;;28.06;46.25;99887.60;1755933;80;22480;-71
2021/07/01 09:52:14;;;;;;;7.62;4.53;;;;;;;28.07;45.40;99872.99;1753725;79;21795;-69
2021/07/01 09:54:50;;;;;;;7.87;4.70;;;;;;;28.02;45.95;99874.28;1763849;80;21561;-66
2021/07/01 09:57:31;;;;;;;8.03;4.45;;;;;;;27.98;45.67;99865.86;1751836;79;22563;-68
2021/07/01 10:00:10;;;;;;;7.75;4.67;;;;;;;27.96;46.60;99860.44;1705484;80;21758;-65
2021/07/01 10:02:46;;;;;;;7.87;4.83;;;;;;;27.95;46.71;99858.24;1757894;80;21074;-63
2021/07/01 10:05:26;;;;;;;6.55;3.80;;;;;;;28.02;46.67;99855.90;1707031;80;21109;-71
2021/07/01 10:07:54;;;;;;;10.75;4.75;;;;;;;28.07;46.41;99852.71;1755519;79;21101;-69
2021/07/01 10:10:22;;;;;;;6.47;4.05;;;;;;;28.07;45.66;99851.91;1747550;79;21387;-70
2021/07/01 10:12:58;;;;;;;6.30;3.83;;;;;;;28.13;45.97;99849.55;1737040;80;21106;-71
2021/07/01 10:15:35;;;;;;;7.05;3.75;;;;;;;28.18;45.49;99844.20;1757133;79;21104;-76
2021/07/01 10:18:20;;;;;;;6.28;3.72;;;;;;;28.23;44.96;99843.45;1767115;79;21059;-69
2021/07/01 10:20:50;;;;;;;7.40;3.87;;;;;;;28.26;44.12;99834.30;1695685;82;21129;-65
2021/07/01 10:23:24;;;;;;;7.75;3.60;;;;;;;28.29;44.71;99836.47;1735733;80;22078;-65
2021/07/01 10:25:57;;;;;;;10.28;4.87;;;;;;;28.35;45.10;99830.05;1744002;80;21007;-73
2021/07/01 10:28:25;;;;;;;6.30;4.45;;;;;;;28.40;46.45;99829.84;1757480;79;21121;-67
2021/07/01 10:31:09;;;;;;;8.88;4.17;;;;;;;28.43;45.91;99828.80;1762725;80;21077;-63
2021/07/01 10:33:38;;;;;;;6.25;4.08;;;;;;;28.44;46.12;99818.78;1739991;80;22567;-69
2021/07/01 10:36:09;;;;;;;6.08;3.22;;;;;;;28.45;46.18;99812.30;1756851;80;21083;-67
2021/07/01 10:38:48;;;;;;;6.00;3.37;;;;;;;28.49;45.15;99818.28;1739216;80;21107;-67
2021/07/01 10:41:37;;;;;;;6.60;2.90;;;;;;;28.56;45.55;99824.88;1768814;80;21062;-72
2021/07/01 10:44:10;;;;;;;9.00;3.60;;;;;;;28.64;44.09;99821.70;1735893;80;21054;-70
2021/07/01 10:46:44;;;;;;;6.87;3.55;;;;;;;28.68;43.65;99818.78;1763035;80;21117;-70
2021/07/01 10:49:13;;;;;;;8.10;4.22;;;;;;;28.70;44.72;99813.92;1767517;80;22006;-69
2021/07/01 10:51:58;;;;;;;6.20;4.03;;;;;;;28.77;46.56;99815.61;1764652;80;21678;-70
2021/07/01 10:54:24;;;;;;;7.22;3.42;;;;;;;28.85;47.02;99812.41;1764777;79;21086;-69
2021/07/01 10:56:54;;;;;;;7.03;3.72;;;;;;;28.94;47.30;99812.23;1766217;79;21067;-74
2021/07/01 10:59:21;;;;;;;6.10;3.65;;;;;;;29.02;45.46;99810.40;1741403;79;21070;-72
2021/07/01 11:01:52;;;;;;;6.75;3.55;;;;;;;29.06;45.95;99810.70;1740074;80;21273;-69
2021/07/01 11:04:20;;;;;;;7.28;4.15;;;;;;;29.11;46.94;99806.67;1760017;80;21031;-71
2021/07/01 11:06:59;;;;;;;9.53;4.40;;;;;;;29.16;47.11;99801.83;1754266;79;21521;-69
2021/07/01 11:09:44;;;;;;;8.30;4.05;;;;;;;29.22;47.50;99806.25;1763733;79;21157;-69
2021/07/01 11:12:12;;;;;;;6.33;4.10;;;;;;;29.28;47.24;99803.83;1750125;79;20971;-68
2021/07/01 11:14:42;;;;;;;8.35;4.00;;;;;;;29.34;47.39;99805.51;1767225;79;21074;-70
2021/07/01 11:17:08;;;;;;;7.42;4.42;;;;;;;29.39;47.36;99787.92;1732907;80;21090;-66
2021/07/01 11:19:41;;;;;;;7.37;3.60;;;;;;;29.43;45.27;99798.50;1763860;80;21057;-73
2021/07/01 11:22:07;;;;;;;7.10;4.30;;;;;;;29.48;45.69;99803.69;1756542;80;21646;-65
2021/07/01 11:24:35;;;;;;;8.83;4.05;;;;;;;29.50;46.11;99797.46;1740415;80;21094;-66
2021/07/01 11:27:02;;;;;;;9.33;4.50;;;;;;;29.52;45.85;99800.20;1745394;80;21078;-67
2021/07/01 11:29:40;;;;;;;6.40;3.83;;;;;;;29.56;46.58;99804.55;1760622;79;21046;-65
2021/07/01 11:32:20;;;;;;;5.83;3.75;;;;;;;29.57;44.75;99800.23;1768309;79;21011;-63
2021/07/01 11:34:48;;;;;;;8.40;4.30;;;;;;;29.56;45.01;99808.63;1762411;79;20984;-63
2021/07/01 11:37:31;;;;;;;8.28;4.17;;;;;;;29.49;44.04;99810.73;1763815;79;21432;-62
2021/07/01 11:40:11;;;;;;;5.87;3.77;;;;;;;29.41;45.13;99811.50;1687643;82;21494;-68
2021/07/01 11:42:38;;;;;;;8.05;4.47;;;;;;;29.37;46.10;99809.05;1711210;81;21058;-64
2021/07/01 11:45:06;;;;;;;8.13;4.00;;;;;;;29.37;46.34;99807.70;1712079;81;21043;-65
2021/07/01 11:47:33;;;;;;;6.03;3.92;;;;;;;29.41;46.08;99806.09;1678735;82;21059;-61
2021/07/01 11:50:00;;;;;;;11.57;4.17;;;;;;;29.45;46.57;99794.17;1748753;80;21535;-63
2021/07/01 11:52:31;;;;;;;9.63;4.45;;;;;;;29.50;43.67;99796.11;1771792;79;22131;-61
2021/07/01 11:54:58;;;;;;;6.47;3.80;;;;;;;29.53;43.30;99794.23;1763317;79;21067;-60